sensor_id;sensor_type;location;lat;lon;timestamp;P1;durP1;ratioP1;P2;durP2;ratioP2
71888;SDS011;59762;49.998;14.858;2022-07-26T00:01:19;6.68;;;5.20;;
71888;SDS011;59762;49.998;14.858;2022-07-26T00:03:46;7.18;;;5.40;;
71888;SDS011;59762;49.998;14.858;2022-07-26T00:06:12;7.30;;;5.00;;
71888;SDS011;59762;49.998;14.858;2022-07-26T00:08:38;13.10;;;5.53;;
71888;SDS011;59762;49.998;14.858;2022-07-26T00:11:03;7.68;;;5.20;;
71888;SDS011;59762;49.998;14.858;2022-07-26T00:13:29;9.25;;;5.38;;
71888;SDS011;59762;49.998;14.858;2022-07-26T00:15:55;6.78;;;5.40;;
71888;SDS011;59762;49.998;14.858;2022-07-26T00:18:22;6.45;;;5.30;;
71888;SDS011;59762;49.998;14.858;2022-07-26T00:20:48;9.07;;;5.97;;
71888;SDS011;59762;49.998;14.858;2022-07-26T00:23:14;9.05;;;5.30;;
71888;SDS011;59762;49.998;14.858;2022-07-26T00:25:40;8.48;;;5.30;;
71888;SDS011;59762;49.998;14.858;2022-07-26T00:28:05;9.10;;;5.32;;
71888;SDS011;59762;49.998;14.858;2022-07-26T00:30:31;9.63;;;5.22;;
71888;SDS011;59762;49.998;14.858;2022-07-26T00:32:57;7.57;;;5.30;;
71888;SDS011;59762;49.998;14.858;2022-07-26T00:35:23;7.63;;;4.95;;
71888;SDS011;59762;49.998;14.858;2022-07-26T00:37:49;6.38;;;5.18;;
71888;SDS011;59762;49.998;14.858;2022-07-26T00:40:14;7.95;;;6.22;;
71888;SDS011;59762;49.998;14.858;2022-07-26T00:42:40;9.00;;;5.45;;
71888;SDS011;59762;49.998;14.858;2022-07-26T00:45:07;7.32;;;4.90;;
71888;SDS011;59762;49.998;14.858;2022-07-26T00:47:34;8.10;;;5.20;;
71888;SDS011;59762;49.998;14.858;2022-07-26T00:49:59;6.47;;;5.15;;
71888;SDS011;59762;49.998;14.858;2022-07-26T00:52:25;8.82;;;5.40;;
71888;SDS011;59762;49.998;14.858;2022-07-26T00:54:51;6.03;;;5.00;;
71888;SDS011;59762;49.998;14.858;2022-07-26T00:57:19;6.25;;;4.90;;
71888;SDS011;59762;49.998;14.858;2022-07-26T00:59:46;7.10;;;5.05;;
71888;SDS011;59762;49.998;14.858;2022-07-26T01:02:12;7.53;;;4.70;;
71888;SDS011;59762;49.998;14.858;2022-07-26T01:04:37;9.95;;;5.80;;
71888;SDS011;59762;49.998;14.858;2022-07-26T01:07:03;8.00;;;5.10;;
71888;SDS011;59762;49.998;14.858;2022-07-26T01:09:29;6.63;;;5.10;;
71888;SDS011;59762;49.998;14.858;2022-07-26T01:11:55;7.22;;;5.28;;
71888;SDS011;59762;49.998;14.858;2022-07-26T01:14:21;8.63;;;4.55;;
71888;SDS011;59762;49.998;14.858;2022-07-26T01:16:48;8.85;;;5.30;;
71888;SDS011;59762;49.998;14.858;2022-07-26T01:19:14;7.25;;;5.38;;
71888;SDS011;59762;49.998;14.858;2022-07-26T01:21:40;6.03;;;4.88;;
71888;SDS011;59762;49.998;14.858;2022-07-26T01:24:05;5.18;;;4.63;;
71888;SDS011;59762;49.998;14.858;2022-07-26T01:26:31;5.93;;;4.93;;
71888;SDS011;59762;49.998;14.858;2022-07-26T01:28:57;8.52;;;5.85;;
71888;SDS011;59762;49.998;14.858;2022-07-26T01:31:23;8.75;;;4.72;;
71888;SDS011;59762;49.998;14.858;2022-07-26T01:33:49;9.55;;;5.75;;
71888;SDS011;59762;49.998;14.858;2022-07-26T01:36:15;8.77;;;4.70;;
71888;SDS011;59762;49.998;14.858;2022-07-26T01:38:41;9.05;;;4.93;;
71888;SDS011;59762;49.998;14.858;2022-07-26T01:41:07;5.93;;;5.30;;
71888;SDS011;59762;49.998;14.858;2022-07-26T01:43:33;6.55;;;4.53;;
71888;SDS011;59762;49.998;14.858;2022-07-26T01:45:59;5.90;;;4.55;;
71888;SDS011;59762;49.998;14.858;2022-07-26T01:48:25;4.97;;;4.35;;
71888;SDS011;59762;49.998;14.858;2022-07-26T01:50:50;7.80;;;5.10;;
71888;SDS011;59762;49.998;14.858;2022-07-26T01:53:16;9.45;;;4.97;;
71888;SDS011;59762;49.998;14.858;2022-07-26T01:55:42;7.80;;;4.10;;
71888;SDS011;59762;49.998;14.858;2022-07-26T01:58:07;10.23;;;5.00;;
71888;SDS011;59762;49.998;14.858;2022-07-26T02:00:33;7.70;;;5.05;;
71888;SDS011;59762;49.998;14.858;2022-07-26T02:02:59;10.65;;;5.10;;
71888;SDS011;59762;49.998;14.858;2022-07-26T02:05:25;7.50;;;5.30;;
71888;SDS011;59762;49.998;14.858;2022-07-26T02:07:51;7.88;;;5.00;;
71888;SDS011;59762;49.998;14.858;2022-07-26T02:10:17;8.80;;;5.32;;
71888;SDS011;59762;49.998;14.858;2022-07-26T02:12:43;9.20;;;5.65;;
71888;SDS011;59762;49.998;14.858;2022-07-26T02:15:09;7.72;;;5.80;;
71888;SDS011;59762;49.998;14.858;2022-07-26T02:17:35;9.35;;;6.25;;
71888;SDS011;59762;49.998;14.858;2022-07-26T02:20:01;10.77;;;6.60;;
71888;SDS011;59762;49.998;14.858;2022-07-26T02:22:28;8.75;;;5.57;;
71888;SDS011;59762;49.998;14.858;2022-07-26T02:24:54;10.48;;;6.10;;
71888;SDS011;59762;49.998;14.858;2022-07-26T02:27:19;8.05;;;5.50;;
71888;SDS011;59762;49.998;14.858;2022-07-26T02:29:45;7.40;;;5.57;;
71888;SDS011;59762;49.998;14.858;2022-07-26T02:32:11;8.45;;;6.10;;
71888;SDS011;59762;49.998;14.858;2022-07-26T02:34:37;7.50;;;6.05;;
71888;SDS011;59762;49.998;14.858;2022-07-26T02:37:03;11.02;;;7.00;;
71888;SDS011;59762;49.998;14.858;2022-07-26T02:39:28;9.82;;;6.43;;
71888;SDS011;59762;49.998;14.858;2022-07-26T02:41:55;8.35;;;5.85;;
71888;SDS011;59762;49.998;14.858;2022-07-26T02:44:23;10.70;;;6.80;;
71888;SDS011;59762;49.998;14.858;2022-07-26T02:46:49;13.70;;;8.35;;
71888;SDS011;59762;49.998;14.858;2022-07-26T02:49:16;11.98;;;7.47;;
71888;SDS011;59762;49.998;14.858;2022-07-26T02:51:42;10.68;;;7.20;;
71888;SDS011;59762;49.998;14.858;2022-07-26T02:54:07;12.65;;;7.85;;
71888;SDS011;59762;49.998;14.858;2022-07-26T02:56:33;11.52;;;8.35;;
71888;SDS011;59762;49.998;14.858;2022-07-26T02:58:59;12.02;;;8.45;;
71888;SDS011;59762;49.998;14.858;2022-07-26T03:01:24;13.68;;;8.98;;
71888;SDS011;59762;49.998;14.858;2022-07-26T03:03:50;12.27;;;8.65;;
71888;SDS011;59762;49.998;14.858;2022-07-26T03:06:16;11.73;;;8.82;;
71888;SDS011;59762;49.998;14.858;2022-07-26T03:08:42;18.23;;;13.05;;
71888;SDS011;59762;49.998;14.858;2022-07-26T03:11:07;18.02;;;11.93;;
71888;SDS011;59762;49.998;14.858;2022-07-26T03:13:33;15.43;;;10.18;;
71888;SDS011;59762;49.998;14.858;2022-07-26T03:15:59;15.05;;;10.60;;
71888;SDS011;59762;49.998;14.858;2022-07-26T03:18:24;17.88;;;10.35;;
71888;SDS011;59762;49.998;14.858;2022-07-26T03:20:50;15.27;;;10.75;;
71888;SDS011;59762;49.998;14.858;2022-07-26T03:23:16;21.27;;;14.07;;
71888;SDS011;59762;49.998;14.858;2022-07-26T03:25:41;24.70;;;17.73;;
71888;SDS011;59762;49.998;14.858;2022-07-26T03:28:07;35.30;;;26.55;;
71888;SDS011;59762;49.998;14.858;2022-07-26T03:30:33;34.85;;;24.15;;
71888;SDS011;59762;49.998;14.858;2022-07-26T03:32:59;32.08;;;24.55;;
71888;SDS011;59762;49.998;14.858;2022-07-26T03:35:24;32.70;;;25.10;;
71888;SDS011;59762;49.998;14.858;2022-07-26T03:37:50;38.97;;;28.48;;
71888;SDS011;59762;49.998;14.858;2022-07-26T03:40:16;46.40;;;36.55;;
71888;SDS011;59762;49.998;14.858;2022-07-26T03:42:43;58.75;;;46.40;;
71888;SDS011;59762;49.998;14.858;2022-07-26T03:45:09;49.85;;;41.90;;
71888;SDS011;59762;49.998;14.858;2022-07-26T03:47:35;48.08;;;36.85;;
71888;SDS011;59762;49.998;14.858;2022-07-26T03:50:02;46.17;;;35.13;;
71888;SDS011;59762;49.998;14.858;2022-07-26T03:52:28;46.10;;;35.25;;
71888;SDS011;59762;49.998;14.858;2022-07-26T03:54:53;43.33;;;31.25;;
71888;SDS011;59762;49.998;14.858;2022-07-26T03:57:19;42.47;;;30.98;;
71888;SDS011;59762;49.998;14.858;2022-07-26T03:59:45;41.95;;;30.08;;
71888;SDS011;59762;49.998;14.858;2022-07-26T04:02:10;39.42;;;28.88;;
71888;SDS011;59762;49.998;14.858;2022-07-26T04:04:36;35.55;;;28.27;;
71888;SDS011;59762;49.998;14.858;2022-07-26T04:07:01;34.50;;;26.58;;
71888;SDS011;59762;49.998;14.858;2022-07-26T04:09:27;33.55;;;25.15;;
71888;SDS011;59762;49.998;14.858;2022-07-26T04:11:53;27.30;;;21.38;;
71888;SDS011;59762;49.998;14.858;2022-07-26T04:14:18;26.83;;;19.80;;
71888;SDS011;59762;49.998;14.858;2022-07-26T04:16:44;22.67;;;16.50;;
71888;SDS011;59762;49.998;14.858;2022-07-26T04:19:09;21.50;;;15.68;;
71888;SDS011;59762;49.998;14.858;2022-07-26T04:21:35;20.70;;;15.75;;
71888;SDS011;59762;49.998;14.858;2022-07-26T04:24:00;18.60;;;12.10;;
71888;SDS011;59762;49.998;14.858;2022-07-26T04:26:26;16.88;;;11.80;;
71888;SDS011;59762;49.998;14.858;2022-07-26T04:28:53;16.67;;;11.57;;
71888;SDS011;59762;49.998;14.858;2022-07-26T04:31:19;15.02;;;10.40;;
71888;SDS011;59762;49.998;14.858;2022-07-26T04:33:45;13.93;;;9.40;;
71888;SDS011;59762;49.998;14.858;2022-07-26T04:36:11;13.82;;;8.70;;
71888;SDS011;59762;49.998;14.858;2022-07-26T04:38:36;11.32;;;8.75;;
71888;SDS011;59762;49.998;14.858;2022-07-26T04:41:02;13.48;;;9.05;;
71888;SDS011;59762;49.998;14.858;2022-07-26T04:43:28;16.05;;;9.70;;
71888;SDS011;59762;49.998;14.858;2022-07-26T04:45:54;14.82;;;9.60;;
71888;SDS011;59762;49.998;14.858;2022-07-26T04:48:21;15.55;;;9.25;;
71888;SDS011;59762;49.998;14.858;2022-07-26T04:50:47;12.80;;;9.27;;
71888;SDS011;59762;49.998;14.858;2022-07-26T04:53:13;17.48;;;9.27;;
71888;SDS011;59762;49.998;14.858;2022-07-26T04:55:40;13.35;;;9.98;;
71888;SDS011;59762;49.998;14.858;2022-07-26T04:58:06;13.75;;;9.77;;
71888;SDS011;59762;49.998;14.858;2022-07-26T05:00:32;14.50;;;9.85;;
71888;SDS011;59762;49.998;14.858;2022-07-26T05:02:59;15.55;;;9.32;;
71888;SDS011;59762;49.998;14.858;2022-07-26T05:05:27;14.35;;;9.68;;
71888;SDS011;59762;49.998;14.858;2022-07-26T05:07:55;13.25;;;9.50;;
71888;SDS011;59762;49.998;14.858;2022-07-26T05:10:27;12.95;;;9.20;;
71888;SDS011;59762;49.998;14.858;2022-07-26T05:13:02;15.50;;;9.43;;
71888;SDS011;59762;49.998;14.858;2022-07-26T05:15:30;16.70;;;8.82;;
71888;SDS011;59762;49.998;14.858;2022-07-26T05:18:09;14.93;;;8.93;;
71888;SDS011;59762;49.998;14.858;2022-07-26T05:20:35;14.25;;;10.13;;
71888;SDS011;59762;49.998;14.858;2022-07-26T05:23:01;18.13;;;10.50;;
71888;SDS011;59762;49.998;14.858;2022-07-26T05:25:28;16.83;;;11.48;;
71888;SDS011;59762;49.998;14.858;2022-07-26T05:27:54;16.27;;;10.73;;
71888;SDS011;59762;49.998;14.858;2022-07-26T05:30:19;14.80;;;10.05;;
71888;SDS011;59762;49.998;14.858;2022-07-26T05:32:45;16.88;;;10.68;;
71888;SDS011;59762;49.998;14.858;2022-07-26T05:35:26;19.38;;;11.23;;
71888;SDS011;59762;49.998;14.858;2022-07-26T05:37:51;21.15;;;10.25;;
71888;SDS011;59762;49.998;14.858;2022-07-26T05:40:17;15.80;;;10.60;;
71888;SDS011;59762;49.998;14.858;2022-07-26T05:42:43;17.45;;;11.23;;
71888;SDS011;59762;49.998;14.858;2022-07-26T05:45:09;17.83;;;11.48;;
71888;SDS011;59762;49.998;14.858;2022-07-26T05:47:35;13.40;;;10.85;;
71888;SDS011;59762;49.998;14.858;2022-07-26T05:50:00;16.45;;;11.23;;
71888;SDS011;59762;49.998;14.858;2022-07-26T05:52:26;16.90;;;10.75;;
71888;SDS011;59762;49.998;14.858;2022-07-26T05:54:52;20.38;;;11.75;;
71888;SDS011;59762;49.998;14.858;2022-07-26T05:57:17;24.40;;;12.45;;
71888;SDS011;59762;49.998;14.858;2022-07-26T05:59:43;19.25;;;12.00;;
71888;SDS011;59762;49.998;14.858;2022-07-26T06:02:08;22.50;;;12.68;;
71888;SDS011;59762;49.998;14.858;2022-07-26T06:04:34;21.92;;;13.25;;
71888;SDS011;59762;49.998;14.858;2022-07-26T06:07:00;18.15;;;12.40;;
71888;SDS011;59762;49.998;14.858;2022-07-26T06:09:26;17.60;;;12.70;;
71888;SDS011;59762;49.998;14.858;2022-07-26T06:11:51;21.10;;;13.43;;
71888;SDS011;59762;49.998;14.858;2022-07-26T06:14:18;17.63;;;12.30;;
71888;SDS011;59762;49.998;14.858;2022-07-26T06:16:47;19.70;;;13.65;;
71888;SDS011;59762;49.998;14.858;2022-07-26T06:19:13;19.98;;;12.55;;
71888;SDS011;59762;49.998;14.858;2022-07-26T06:21:38;19.05;;;12.88;;
71888;SDS011;59762;49.998;14.858;2022-07-26T06:24:06;22.30;;;14.65;;
71888;SDS011;59762;49.998;14.858;2022-07-26T06:26:32;20.23;;;13.40;;
71888;SDS011;59762;49.998;14.858;2022-07-26T06:28:57;22.17;;;13.38;;
71888;SDS011;59762;49.998;14.858;2022-07-26T06:31:23;20.83;;;14.20;;
71888;SDS011;59762;49.998;14.858;2022-07-26T06:33:49;20.58;;;14.25;;
71888;SDS011;59762;49.998;14.858;2022-07-26T06:36:15;20.40;;;14.30;;
71888;SDS011;59762;49.998;14.858;2022-07-26T06:38:41;25.42;;;14.30;;
71888;SDS011;59762;49.998;14.858;2022-07-26T06:41:07;17.98;;;13.30;;
71888;SDS011;59762;49.998;14.858;2022-07-26T06:43:32;20.90;;;13.70;;
71888;SDS011;59762;49.998;14.858;2022-07-26T06:45:58;23.42;;;13.88;;
71888;SDS011;59762;49.998;14.858;2022-07-26T06:48:24;20.95;;;13.55;;
71888;SDS011;59762;49.998;14.858;2022-07-26T06:50:49;21.05;;;14.82;;
71888;SDS011;59762;49.998;14.858;2022-07-26T06:53:15;20.50;;;13.55;;
71888;SDS011;59762;49.998;14.858;2022-07-26T06:55:41;18.63;;;13.85;;
71888;SDS011;59762;49.998;14.858;2022-07-26T06:58:07;19.63;;;13.35;;
71888;SDS011;59762;49.998;14.858;2022-07-26T07:00:33;22.83;;;13.48;;
71888;SDS011;59762;49.998;14.858;2022-07-26T07:02:58;19.52;;;13.25;;
71888;SDS011;59762;49.998;14.858;2022-07-26T07:05:24;19.48;;;11.32;;
71888;SDS011;59762;49.998;14.858;2022-07-26T07:07:50;16.05;;;11.48;;
71888;SDS011;59762;49.998;14.858;2022-07-26T07:10:15;21.45;;;11.63;;
71888;SDS011;59762;49.998;14.858;2022-07-26T07:12:41;20.17;;;11.95;;
71888;SDS011;59762;49.998;14.858;2022-07-26T07:15:09;22.70;;;12.55;;
71888;SDS011;59762;49.998;14.858;2022-07-26T07:17:35;20.30;;;12.68;;
71888;SDS011;59762;49.998;14.858;2022-07-26T07:20:01;22.73;;;12.27;;
71888;SDS011;59762;49.998;14.858;2022-07-26T07:22:29;18.52;;;12.13;;
71888;SDS011;59762;49.998;14.858;2022-07-26T07:24:55;17.90;;;11.80;;
71888;SDS011;59762;49.998;14.858;2022-07-26T07:27:21;24.15;;;13.57;;
71888;SDS011;59762;49.998;14.858;2022-07-26T07:29:46;21.25;;;13.25;;
71888;SDS011;59762;49.998;14.858;2022-07-26T07:32:12;21.63;;;13.23;;
71888;SDS011;59762;49.998;14.858;2022-07-26T07:34:37;20.60;;;13.52;;
71888;SDS011;59762;49.998;14.858;2022-07-26T07:37:03;20.38;;;13.95;;
71888;SDS011;59762;49.998;14.858;2022-07-26T07:39:29;24.08;;;13.80;;
71888;SDS011;59762;49.998;14.858;2022-07-26T07:41:55;23.58;;;15.02;;
71888;SDS011;59762;49.998;14.858;2022-07-26T07:44:20;26.73;;;15.35;;
71888;SDS011;59762;49.998;14.858;2022-07-26T07:46:46;26.13;;;16.88;;
71888;SDS011;59762;49.998;14.858;2022-07-26T07:49:11;27.65;;;17.95;;
71888;SDS011;59762;49.998;14.858;2022-07-26T07:51:37;30.17;;;18.73;;
71888;SDS011;59762;49.998;14.858;2022-07-26T07:54:03;30.42;;;18.23;;
71888;SDS011;59762;49.998;14.858;2022-07-26T07:56:28;28.35;;;17.70;;
71888;SDS011;59762;49.998;14.858;2022-07-26T07:58:54;28.33;;;18.73;;
71888;SDS011;59762;49.998;14.858;2022-07-26T08:01:20;37.92;;;20.58;;
71888;SDS011;59762;49.998;14.858;2022-07-26T08:03:45;28.42;;;20.77;;
71888;SDS011;59762;49.998;14.858;2022-07-26T08:06:11;35.80;;;22.25;;
71888;SDS011;59762;49.998;14.858;2022-07-26T08:08:37;38.58;;;23.90;;
71888;SDS011;59762;49.998;14.858;2022-07-26T08:11:03;45.03;;;25.98;;
71888;SDS011;59762;49.998;14.858;2022-07-26T08:13:29;39.90;;;25.52;;
71888;SDS011;59762;49.998;14.858;2022-07-26T08:15:55;38.72;;;26.73;;
71888;SDS011;59762;49.998;14.858;2022-07-26T08:18:21;43.30;;;27.83;;
71888;SDS011;59762;49.998;14.858;2022-07-26T08:20:48;49.95;;;29.25;;
71888;SDS011;59762;49.998;14.858;2022-07-26T08:23:15;44.58;;;29.80;;
71888;SDS011;59762;49.998;14.858;2022-07-26T08:25:40;49.58;;;31.65;;
71888;SDS011;59762;49.998;14.858;2022-07-26T08:28:06;48.25;;;30.77;;
71888;SDS011;59762;49.998;14.858;2022-07-26T08:30:32;53.75;;;34.88;;
71888;SDS011;59762;49.998;14.858;2022-07-26T08:32:57;55.22;;;34.63;;
71888;SDS011;59762;49.998;14.858;2022-07-26T08:35:23;53.67;;;35.33;;
71888;SDS011;59762;49.998;14.858;2022-07-26T08:37:49;63.45;;;36.00;;
71888;SDS011;59762;49.998;14.858;2022-07-26T08:40:14;56.58;;;35.60;;
71888;SDS011;59762;49.998;14.858;2022-07-26T08:42:47;51.47;;;35.53;;
71888;SDS011;59762;49.998;14.858;2022-07-26T08:45:23;61.85;;;39.78;;
71888;SDS011;59762;49.998;14.858;2022-07-26T08:47:50;55.65;;;34.05;;
71888;SDS011;59762;49.998;14.858;2022-07-26T08:50:16;51.50;;;33.83;;
71888;SDS011;59762;49.998;14.858;2022-07-26T08:52:42;48.85;;;32.35;;
71888;SDS011;59762;49.998;14.858;2022-07-26T08:55:11;52.80;;;35.05;;
71888;SDS011;59762;49.998;14.858;2022-07-26T08:57:40;56.92;;;37.20;;
71888;SDS011;59762;49.998;14.858;2022-07-26T09:00:19;52.58;;;34.55;;
71888;SDS011;59762;49.998;14.858;2022-07-26T09:02:49;50.90;;;32.42;;
71888;SDS011;59762;49.998;14.858;2022-07-26T09:05:19;45.42;;;29.85;;
71888;SDS011;59762;49.998;14.858;2022-07-26T09:07:50;46.13;;;30.38;;
71888;SDS011;59762;49.998;14.858;2022-07-26T09:10:16;44.15;;;29.92;;
71888;SDS011;59762;49.998;14.858;2022-07-26T09:12:42;38.28;;;23.88;;
71888;SDS011;59762;49.998;14.858;2022-07-26T09:15:19;27.98;;;18.90;;
71888;SDS011;59762;49.998;14.858;2022-07-26T09:17:48;27.08;;;18.17;;
71888;SDS011;59762;49.998;14.858;2022-07-26T09:20:18;22.88;;;13.38;;
71888;SDS011;59762;49.998;14.858;2022-07-26T09:25:27;14.32;;;9.43;;
71888;SDS011;59762;49.998;14.858;2022-07-26T09:27:54;13.40;;;7.60;;
71888;SDS011;59762;49.998;14.858;2022-07-26T09:30:20;12.75;;;7.85;;
71888;SDS011;59762;49.998;14.858;2022-07-26T09:32:57;10.10;;;6.10;;
71888;SDS011;59762;49.998;14.858;2022-07-26T09:35:26;7.88;;;4.80;;
71888;SDS011;59762;49.998;14.858;2022-07-26T09:37:53;7.38;;;4.95;;
71888;SDS011;59762;49.998;14.858;2022-07-26T09:40:19;6.22;;;4.75;;
71888;SDS011;59762;49.998;14.858;2022-07-26T09:42:57;8.57;;;4.65;;
71888;SDS011;59762;49.998;14.858;2022-07-26T09:45:26;6.60;;;4.22;;
71888;SDS011;59762;49.998;14.858;2022-07-26T09:47:53;6.82;;;3.88;;
71888;SDS011;59762;49.998;14.858;2022-07-26T09:50:20;5.38;;;3.53;;
71888;SDS011;59762;49.998;14.858;2022-07-26T09:53:00;6.70;;;3.20;;
71888;SDS011;59762;49.998;14.858;2022-07-26T09:55:31;4.72;;;2.85;;
71888;SDS011;59762;49.998;14.858;2022-07-26T09:57:58;5.78;;;3.13;;
71888;SDS011;59762;49.998;14.858;2022-07-26T10:00:27;6.60;;;3.28;;
71888;SDS011;59762;49.998;14.858;2022-07-26T10:02:54;4.90;;;2.92;;
71888;SDS011;59762;49.998;14.858;2022-07-26T10:05:20;3.78;;;3.17;;
71888;SDS011;59762;49.998;14.858;2022-07-26T10:07:49;5.50;;;2.88;;
71888;SDS011;59762;49.998;14.858;2022-07-26T10:10:20;6.13;;;2.95;;
71888;SDS011;59762;49.998;14.858;2022-07-26T10:12:52;4.43;;;2.92;;
71888;SDS011;59762;49.998;14.858;2022-07-26T10:18:01;6.00;;;3.55;;
71888;SDS011;59762;49.998;14.858;2022-07-26T10:20:42;7.00;;;2.90;;
71888;SDS011;59762;49.998;14.858;2022-07-26T10:26:06;5.97;;;2.83;;
71888;SDS011;59762;49.998;14.858;2022-07-26T10:28:34;5.97;;;2.50;;
71888;SDS011;59762;49.998;14.858;2022-07-26T10:33:48;2.75;;;2.00;;
71888;SDS011;59762;49.998;14.858;2022-07-26T10:39:02;4.80;;;2.40;;
71888;SDS011;59762;49.998;14.858;2022-07-26T10:47:03;2.30;;;2.05;;
71888;SDS011;59762;49.998;14.858;2022-07-26T10:52:12;4.28;;;2.10;;
71888;SDS011;59762;49.998;14.858;2022-07-26T10:57:31;3.65;;;2.10;;
71888;SDS011;59762;49.998;14.858;2022-07-26T11:00:00;4.75;;;2.70;;
71888;SDS011;59762;49.998;14.858;2022-07-26T11:02:27;5.25;;;2.90;;
71888;SDS011;59762;49.998;14.858;2022-07-26T11:07:30;5.27;;;2.23;;
71888;SDS011;59762;49.998;14.858;2022-07-26T11:09:56;2.97;;;1.90;;
71888;SDS011;59762;49.998;14.858;2022-07-26T11:12:22;2.83;;;1.73;;
71888;SDS011;59762;49.998;14.858;2022-07-26T11:14:48;1.77;;;1.67;;
71888;SDS011;59762;49.998;14.858;2022-07-26T11:17:23;5.97;;;1.38;;
71888;SDS011;59762;49.998;14.858;2022-07-26T11:19:49;1.67;;;1.30;;
71888;SDS011;59762;49.998;14.858;2022-07-26T11:22:15;2.25;;;1.40;;
71888;SDS011;59762;49.998;14.858;2022-07-26T11:24:41;2.63;;;1.48;;
71888;SDS011;59762;49.998;14.858;2022-07-26T11:27:07;2.38;;;1.83;;
71888;SDS011;59762;49.998;14.858;2022-07-26T11:29:33;3.45;;;1.48;;
71888;SDS011;59762;49.998;14.858;2022-07-26T11:32:00;3.15;;;1.40;;
71888;SDS011;59762;49.998;14.858;2022-07-26T11:34:27;1.75;;;1.10;;
71888;SDS011;59762;49.998;14.858;2022-07-26T11:36:55;2.67;;;1.30;;
71888;SDS011;59762;49.998;14.858;2022-07-26T11:39:23;7.85;;;1.23;;
71888;SDS011;59762;49.998;14.858;2022-07-26T11:41:51;4.15;;;1.23;;
71888;SDS011;59762;49.998;14.858;2022-07-26T11:44:28;1.20;;;1.00;;
71888;SDS011;59762;49.998;14.858;2022-07-26T11:46:55;3.03;;;1.40;;
71888;SDS011;59762;49.998;14.858;2022-07-26T11:49:25;1.90;;;1.20;;
71888;SDS011;59762;49.998;14.858;2022-07-26T11:51:53;1.33;;;1.17;;
71888;SDS011;59762;49.998;14.858;2022-07-26T11:54:21;3.42;;;1.25;;
71888;SDS011;59762;49.998;14.858;2022-07-26T11:56:58;3.15;;;1.20;;
71888;SDS011;59762;49.998;14.858;2022-07-26T11:59:30;2.22;;;1.40;;
71888;SDS011;59762;49.998;14.858;2022-07-26T12:01:57;2.80;;;1.23;;
71888;SDS011;59762;49.998;14.858;2022-07-26T12:04:28;3.42;;;1.38;;
71888;SDS011;59762;49.998;14.858;2022-07-26T12:09:36;4.68;;;1.17;;
71888;SDS011;59762;49.998;14.858;2022-07-26T12:12:07;2.13;;;1.30;;
71888;SDS011;59762;49.998;14.858;2022-07-26T12:15:00;2.08;;;1.20;;
71888;SDS011;59762;49.998;14.858;2022-07-26T12:17:30;2.33;;;1.40;;
71888;SDS011;59762;49.998;14.858;2022-07-26T12:20:13;5.32;;;1.50;;
71888;SDS011;59762;49.998;14.858;2022-07-26T12:22:40;1.67;;;1.00;;
71888;SDS011;59762;49.998;14.858;2022-07-26T12:25:23;3.72;;;1.25;;
71888;SDS011;59762;49.998;14.858;2022-07-26T12:27:52;2.10;;;1.30;;
71888;SDS011;59762;49.998;14.858;2022-07-26T12:30:18;5.05;;;1.17;;
71888;SDS011;59762;49.998;14.858;2022-07-26T12:32:45;8.13;;;1.48;;
71888;SDS011;59762;49.998;14.858;2022-07-26T12:35:14;2.55;;;1.42;;
71888;SDS011;59762;49.998;14.858;2022-07-26T12:40:10;2.63;;;1.30;;
71888;SDS011;59762;49.998;14.858;2022-07-26T12:42:51;1.40;;;1.10;;
71888;SDS011;59762;49.998;14.858;2022-07-26T12:45:20;1.55;;;1.10;;
71888;SDS011;59762;49.998;14.858;2022-07-26T12:47:47;2.50;;;1.30;;
71888;SDS011;59762;49.998;14.858;2022-07-26T12:50:15;5.60;;;1.40;;
71888;SDS011;59762;49.998;14.858;2022-07-26T12:52:42;1.58;;;1.10;;
71888;SDS011;59762;49.998;14.858;2022-07-26T12:55:10;2.92;;;1.42;;
71888;SDS011;59762;49.998;14.858;2022-07-26T12:57:38;4.03;;;1.30;;
71888;SDS011;59762;49.998;14.858;2022-07-26T13:00:05;3.97;;;1.30;;
71888;SDS011;59762;49.998;14.858;2022-07-26T13:02:32;1.58;;;1.17;;
71888;SDS011;59762;49.998;14.858;2022-07-26T13:04:59;3.38;;;1.40;;
71888;SDS011;59762;49.998;14.858;2022-07-26T13:07:25;3.92;;;1.40;;
71888;SDS011;59762;49.998;14.858;2022-07-26T13:09:51;2.13;;;1.25;;
71888;SDS011;59762;49.998;14.858;2022-07-26T13:12:17;2.38;;;1.05;;
71888;SDS011;59762;49.998;14.858;2022-07-26T13:14:43;7.50;;;1.38;;
71888;SDS011;59762;49.998;14.858;2022-07-26T13:17:09;2.63;;;1.92;;
71888;SDS011;59762;49.998;14.858;2022-07-26T13:19:35;2.58;;;1.30;;
71888;SDS011;59762;49.998;14.858;2022-07-26T13:22:02;2.78;;;1.60;;
71888;SDS011;59762;49.998;14.858;2022-07-26T13:24:29;2.95;;;1.30;;
71888;SDS011;59762;49.998;14.858;2022-07-26T13:26:56;2.90;;;1.10;;
71888;SDS011;59762;49.998;14.858;2022-07-26T13:29:22;3.53;;;1.30;;
71888;SDS011;59762;49.998;14.858;2022-07-26T13:31:47;9.15;;;1.30;;
71888;SDS011;59762;49.998;14.858;2022-07-26T13:34:15;2.40;;;1.50;;
71888;SDS011;59762;49.998;14.858;2022-07-26T13:36:41;3.90;;;1.50;;
71888;SDS011;59762;49.998;14.858;2022-07-26T13:39:07;2.25;;;1.10;;
71888;SDS011;59762;49.998;14.858;2022-07-26T13:41:32;2.15;;;1.38;;
71888;SDS011;59762;49.998;14.858;2022-07-26T13:43:58;3.15;;;1.40;;
71888;SDS011;59762;49.998;14.858;2022-07-26T13:46:24;5.43;;;1.65;;
71888;SDS011;59762;49.998;14.858;2022-07-26T13:48:54;1.52;;;1.10;;
71888;SDS011;59762;49.998;14.858;2022-07-26T13:51:21;2.20;;;1.17;;
71888;SDS011;59762;49.998;14.858;2022-07-26T13:53:47;2.15;;;1.30;;
71888;SDS011;59762;49.998;14.858;2022-07-26T13:56:12;3.17;;;0.93;;
71888;SDS011;59762;49.998;14.858;2022-07-26T13:58:38;2.38;;;1.00;;
71888;SDS011;59762;49.998;14.858;2022-07-26T14:01:03;4.45;;;1.13;;
71888;SDS011;59762;49.998;14.858;2022-07-26T14:03:30;1.35;;;0.80;;
71888;SDS011;59762;49.998;14.858;2022-07-26T14:05:55;2.10;;;1.10;;
71888;SDS011;59762;49.998;14.858;2022-07-26T14:08:21;4.72;;;1.35;;
71888;SDS011;59762;49.998;14.858;2022-07-26T14:10:47;3.85;;;1.20;;
71888;SDS011;59762;49.998;14.858;2022-07-26T14:13:13;2.40;;;1.15;;
71888;SDS011;59762;49.998;14.858;2022-07-26T14:15:39;3.47;;;1.02;;
71888;SDS011;59762;49.998;14.858;2022-07-26T14:18:04;3.38;;;1.20;;
71888;SDS011;59762;49.998;14.858;2022-07-26T14:20:30;2.90;;;1.10;;
71888;SDS011;59762;49.998;14.858;2022-07-26T14:22:56;1.63;;;1.05;;
71888;SDS011;59762;49.998;14.858;2022-07-26T14:25:22;1.10;;;0.80;;
71888;SDS011;59762;49.998;14.858;2022-07-26T14:27:49;1.98;;;1.10;;
71888;SDS011;59762;49.998;14.858;2022-07-26T14:30:16;1.58;;;1.00;;
71888;SDS011;59762;49.998;14.858;2022-07-26T14:32:41;1.33;;;1.00;;
71888;SDS011;59762;49.998;14.858;2022-07-26T14:35:07;2.20;;;0.98;;
71888;SDS011;59762;49.998;14.858;2022-07-26T14:37:33;4.40;;;1.10;;
71888;SDS011;59762;49.998;14.858;2022-07-26T14:39:58;2.67;;;1.10;;
71888;SDS011;59762;49.998;14.858;2022-07-26T14:42:24;1.90;;;1.00;;
71888;SDS011;59762;49.998;14.858;2022-07-26T14:44:50;1.77;;;1.10;;
71888;SDS011;59762;49.998;14.858;2022-07-26T14:47:15;3.67;;;1.05;;
71888;SDS011;59762;49.998;14.858;2022-07-26T14:49:41;3.40;;;1.00;;
71888;SDS011;59762;49.998;14.858;2022-07-26T14:52:06;2.47;;;1.10;;
71888;SDS011;59762;49.998;14.858;2022-07-26T14:54:32;1.67;;;1.20;;